sensor_id;sensor_type;location;lat;lon;timestamp;P1;durP1;ratioP1;P2;durP2;ratioP2
47529;SDS011;33272;51.922;7.730;2022-07-23T00:00:18;7.13;;;4.97;;
47529;SDS011;33272;51.922;7.730;2022-07-23T00:02:45;4.87;;;4.37;;
47529;SDS011;33272;51.922;7.730;2022-07-23T00:05:13;5.57;;;4.53;;
47529;SDS011;33272;51.922;7.730;2022-07-23T00:07:41;5.63;;;4.37;;
47529;SDS011;33272;51.922;7.730;2022-07-23T00:10:08;5.77;;;5.07;;
47529;SDS011;33272;51.922;7.730;2022-07-23T00:12:36;7.97;;;4.90;;
47529;SDS011;33272;51.922;7.730;2022-07-23T00:15:04;9.27;;;5.33;;
47529;SDS011;33272;51.922;7.730;2022-07-23T00:17:35;6.77;;;5.60;;
47529;SDS011;33272;51.922;7.730;2022-07-23T00:20:02;7.27;;;5.07;;
47529;SDS011;33272;51.922;7.730;2022-07-23T00:22:30;7.13;;;5.17;;
47529;SDS011;33272;51.922;7.730;2022-07-23T00:24:59;6.47;;;4.93;;
47529;SDS011;33272;51.922;7.730;2022-07-23T00:27:26;6.20;;;5.60;;
47529;SDS011;33272;51.922;7.730;2022-07-23T00:29:53;5.80;;;4.87;;
47529;SDS011;33272;51.922;7.730;2022-07-23T00:32:20;7.60;;;5.33;;
47529;SDS011;33272;51.922;7.730;2022-07-23T00:34:47;6.97;;;5.43;;
47529;SDS011;33272;51.922;7.730;2022-07-23T00:37:14;8.90;;;5.97;;
47529;SDS011;33272;51.922;7.730;2022-07-23T00:39:41;9.33;;;5.83;;
47529;SDS011;33272;51.922;7.730;2022-07-23T00:42:09;6.97;;;5.40;;
47529;SDS011;33272;51.922;7.730;2022-07-23T00:44:38;6.47;;;5.87;;
47529;SDS011;33272;51.922;7.730;2022-07-23T00:47:06;7.97;;;6.20;;
47529;SDS011;33272;51.922;7.730;2022-07-23T00:49:33;6.83;;;5.20;;
47529;SDS011;33272;51.922;7.730;2022-07-23T00:52:01;8.20;;;5.40;;
47529;SDS011;33272;51.922;7.730;2022-07-23T00:54:28;8.17;;;5.90;;
47529;SDS011;33272;51.922;7.730;2022-07-23T00:56:56;10.63;;;6.37;;
47529;SDS011;33272;51.922;7.730;2022-07-23T00:59:24;7.47;;;6.20;;
47529;SDS011;33272;51.922;7.730;2022-07-23T01:01:51;8.23;;;6.60;;
47529;SDS011;33272;51.922;7.730;2022-07-23T01:04:18;7.43;;;6.17;;
47529;SDS011;33272;51.922;7.730;2022-07-23T01:06:45;8.37;;;7.27;;
47529;SDS011;33272;51.922;7.730;2022-07-23T01:09:13;10.10;;;7.13;;
47529;SDS011;33272;51.922;7.730;2022-07-23T01:11:40;11.37;;;7.83;;
47529;SDS011;33272;51.922;7.730;2022-07-23T01:14:08;8.57;;;6.60;;
47529;SDS011;33272;51.922;7.730;2022-07-23T01:16:38;8.80;;;6.77;;
47529;SDS011;33272;51.922;7.730;2022-07-23T01:19:06;7.90;;;7.10;;
47529;SDS011;33272;51.922;7.730;2022-07-23T01:21:35;7.07;;;6.33;;
47529;SDS011;33272;51.922;7.730;2022-07-23T01:24:05;6.97;;;6.20;;
47529;SDS011;33272;51.922;7.730;2022-07-23T01:26:33;8.77;;;6.20;;
47529;SDS011;33272;51.922;7.730;2022-07-23T01:29:01;7.97;;;6.37;;
47529;SDS011;33272;51.922;7.730;2022-07-23T01:31:29;7.60;;;5.90;;
47529;SDS011;33272;51.922;7.730;2022-07-23T01:33:56;9.20;;;6.23;;
47529;SDS011;33272;51.922;7.730;2022-07-23T01:36:23;8.77;;;6.23;;
47529;SDS011;33272;51.922;7.730;2022-07-23T01:38:51;7.20;;;6.30;;
47529;SDS011;33272;51.922;7.730;2022-07-23T01:41:19;10.10;;;6.63;;
47529;SDS011;33272;51.922;7.730;2022-07-23T01:43:46;8.20;;;6.67;;
47529;SDS011;33272;51.922;7.730;2022-07-23T01:46:13;8.40;;;7.50;;
47529;SDS011;33272;51.922;7.730;2022-07-23T01:48:41;9.17;;;7.27;;
47529;SDS011;33272;51.922;7.730;2022-07-23T01:51:08;8.03;;;7.23;;
47529;SDS011;33272;51.922;7.730;2022-07-23T01:53:35;9.53;;;6.47;;
47529;SDS011;33272;51.922;7.730;2022-07-23T01:56:02;10.20;;;7.80;;
47529;SDS011;33272;51.922;7.730;2022-07-23T01:58:31;8.40;;;7.50;;
47529;SDS011;33272;51.922;7.730;2022-07-23T02:00:59;10.20;;;8.07;;
47529;SDS011;33272;51.922;7.730;2022-07-23T02:03:26;8.87;;;7.77;;
47529;SDS011;33272;51.922;7.730;2022-07-23T02:05:53;10.53;;;7.07;;
47529;SDS011;33272;51.922;7.730;2022-07-23T02:08:20;10.03;;;7.20;;
47529;SDS011;33272;51.922;7.730;2022-07-23T02:10:47;8.63;;;7.80;;
47529;SDS011;33272;51.922;7.730;2022-07-23T02:13:16;9.67;;;7.60;;
47529;SDS011;33272;51.922;7.730;2022-07-23T02:15:45;8.23;;;7.20;;
47529;SDS011;33272;51.922;7.730;2022-07-23T02:18:12;9.67;;;7.23;;
47529;SDS011;33272;51.922;7.730;2022-07-23T02:20:40;8.93;;;7.77;;
47529;SDS011;33272;51.922;7.730;2022-07-23T02:23:07;9.17;;;7.97;;
47529;SDS011;33272;51.922;7.730;2022-07-23T02:25:34;9.33;;;7.93;;
47529;SDS011;33272;51.922;7.730;2022-07-23T02:28:02;9.60;;;8.30;;
47529;SDS011;33272;51.922;7.730;2022-07-23T02:30:29;10.43;;;7.87;;
47529;SDS011;33272;51.922;7.730;2022-07-23T02:32:58;9.87;;;8.87;;
47529;SDS011;33272;51.922;7.730;2022-07-23T02:35:25;10.07;;;8.67;;
47529;SDS011;33272;51.922;7.730;2022-07-23T02:37:52;12.40;;;8.20;;
47529;SDS011;33272;51.922;7.730;2022-07-23T02:40:19;12.13;;;9.30;;
47529;SDS011;33272;51.922;7.730;2022-07-23T02:42:46;10.60;;;8.17;;
47529;SDS011;33272;51.922;7.730;2022-07-23T02:45:13;12.90;;;8.60;;
47529;SDS011;33272;51.922;7.730;2022-07-23T02:47:40;9.57;;;8.57;;
47529;SDS011;33272;51.922;7.730;2022-07-23T02:50:09;9.90;;;8.73;;
47529;SDS011;33272;51.922;7.730;2022-07-23T02:52:37;10.20;;;9.10;;
47529;SDS011;33272;51.922;7.730;2022-07-23T02:55:04;11.40;;;8.53;;
47529;SDS011;33272;51.922;7.730;2022-07-23T02:57:32;10.30;;;8.90;;
47529;SDS011;33272;51.922;7.730;2022-07-23T02:59:59;10.47;;;9.30;;
47529;SDS011;33272;51.922;7.730;2022-07-23T03:02:27;11.47;;;8.80;;
47529;SDS011;33272;51.922;7.730;2022-07-23T03:04:54;12.10;;;9.23;;
47529;SDS011;33272;51.922;7.730;2022-07-23T03:07:22;11.90;;;9.93;;
47529;SDS011;33272;51.922;7.730;2022-07-23T03:09:49;12.47;;;10.20;;
47529;SDS011;33272;51.922;7.730;2022-07-23T03:12:16;13.97;;;10.03;;
47529;SDS011;33272;51.922;7.730;2022-07-23T03:14:43;10.63;;;9.53;;
47529;SDS011;33272;51.922;7.730;2022-07-23T03:17:10;13.43;;;9.67;;
47529;SDS011;33272;51.922;7.730;2022-07-23T03:19:37;12.80;;;9.00;;
47529;SDS011;33272;51.922;7.730;2022-07-23T03:22:05;11.00;;;8.60;;
47529;SDS011;33272;51.922;7.730;2022-07-23T03:24:33;11.10;;;10.00;;
47529;SDS011;33272;51.922;7.730;2022-07-23T03:27:18;9.70;;;8.70;;
47529;SDS011;33272;51.922;7.730;2022-07-23T03:29:45;12.53;;;9.17;;
47529;SDS011;33272;51.922;7.730;2022-07-23T03:32:12;10.80;;;9.33;;
47529;SDS011;33272;51.922;7.730;2022-07-23T03:34:39;10.50;;;9.40;;
47529;SDS011;33272;51.922;7.730;2022-07-23T03:37:06;10.00;;;8.93;;
47529;SDS011;33272;51.922;7.730;2022-07-23T03:39:34;10.67;;;8.73;;
47529;SDS011;33272;51.922;7.730;2022-07-23T03:42:02;11.77;;;9.57;;
47529;SDS011;33272;51.922;7.730;2022-07-23T03:44:29;9.33;;;8.43;;
47529;SDS011;33272;51.922;7.730;2022-07-23T03:46:56;13.30;;;9.80;;
47529;SDS011;33272;51.922;7.730;2022-07-23T03:49:23;12.27;;;9.47;;
47529;SDS011;33272;51.922;7.730;2022-07-23T03:51:50;12.10;;;9.60;;
47529;SDS011;33272;51.922;7.730;2022-07-23T03:54:17;9.80;;;8.87;;
47529;SDS011;33272;51.922;7.730;2022-07-23T03:56:46;14.53;;;10.10;;
47529;SDS011;33272;51.922;7.730;2022-07-23T03:59:13;11.93;;;9.73;;
47529;SDS011;33272;51.922;7.730;2022-07-23T04:01:40;11.50;;;9.50;;
47529;SDS011;33272;51.922;7.730;2022-07-23T04:04:07;11.40;;;10.20;;
47529;SDS011;33272;51.922;7.730;2022-07-23T04:06:34;12.57;;;9.83;;
47529;SDS011;33272;51.922;7.730;2022-07-23T04:09:02;10.50;;;9.40;;
47529;SDS011;33272;51.922;7.730;2022-07-23T04:11:29;11.43;;;9.40;;
47529;SDS011;33272;51.922;7.730;2022-07-23T04:13:58;10.20;;;9.17;;
47529;SDS011;33272;51.922;7.730;2022-07-23T04:16:25;10.50;;;8.83;;
47529;SDS011;33272;51.922;7.730;2022-07-23T04:18:53;10.93;;;9.40;;
47529;SDS011;33272;51.922;7.730;2022-07-23T04:21:20;10.07;;;8.83;;
47529;SDS011;33272;51.922;7.730;2022-07-23T04:23:47;13.63;;;9.70;;
47529;SDS011;33272;51.922;7.730;2022-07-23T04:26:14;13.50;;;9.97;;
47529;SDS011;33272;51.922;7.730;2022-07-23T04:28:41;10.80;;;9.67;;
47529;SDS011;33272;51.922;7.730;2022-07-23T04:31:10;10.20;;;8.83;;
47529;SDS011;33272;51.922;7.730;2022-07-23T04:33:37;11.97;;;9.80;;
47529;SDS011;33272;51.922;7.730;2022-07-23T04:36:04;11.60;;;9.07;;
47529;SDS011;33272;51.922;7.730;2022-07-23T04:38:32;10.27;;;9.23;;
47529;SDS011;33272;51.922;7.730;2022-07-23T04:40:59;14.83;;;10.50;;
47529;SDS011;33272;51.922;7.730;2022-07-23T04:43:27;13.60;;;11.03;;
47529;SDS011;33272;51.922;7.730;2022-07-23T04:45:54;11.77;;;10.40;;
47529;SDS011;33272;51.922;7.730;2022-07-23T04:48:22;13.10;;;9.77;;
47529;SDS011;33272;51.922;7.730;2022-07-23T04:50:50;11.67;;;9.50;;
47529;SDS011;33272;51.922;7.730;2022-07-23T04:53:17;11.83;;;9.17;;
47529;SDS011;33272;51.922;7.730;2022-07-23T04:55:44;11.60;;;8.70;;
47529;SDS011;33272;51.922;7.730;2022-07-23T04:58:12;10.73;;;9.10;;
47529;SDS011;33272;51.922;7.730;2022-07-23T05:00:39;13.53;;;9.07;;
47529;SDS011;33272;51.922;7.730;2022-07-23T05:03:07;11.57;;;9.37;;
47529;SDS011;33272;51.922;7.730;2022-07-23T05:05:36;13.90;;;8.90;;
47529;SDS011;33272;51.922;7.730;2022-07-23T05:08:03;12.23;;;9.20;;
47529;SDS011;33272;51.922;7.730;2022-07-23T05:10:31;10.53;;;8.50;;
47529;SDS011;33272;51.922;7.730;2022-07-23T05:12:59;9.10;;;8.20;;
47529;SDS011;33272;51.922;7.730;2022-07-23T05:15:26;9.50;;;8.13;;
47529;SDS011;33272;51.922;7.730;2022-07-23T05:17:53;11.57;;;8.83;;
47529;SDS011;33272;51.922;7.730;2022-07-23T05:20:20;9.03;;;8.13;;
47529;SDS011;33272;51.922;7.730;2022-07-23T05:22:48;9.40;;;8.40;;
47529;SDS011;33272;51.922;7.730;2022-07-23T05:25:16;8.70;;;7.80;;
47529;SDS011;33272;51.922;7.730;2022-07-23T05:27:43;8.97;;;7.37;;
47529;SDS011;33272;51.922;7.730;2022-07-23T05:30:10;9.87;;;8.17;;
47529;SDS011;33272;51.922;7.730;2022-07-23T05:32:38;8.97;;;7.60;;
47529;SDS011;33272;51.922;7.730;2022-07-23T05:35:05;8.57;;;7.43;;
47529;SDS011;33272;51.922;7.730;2022-07-23T05:37:34;10.33;;;7.00;;
47529;SDS011;33272;51.922;7.730;2022-07-23T05:40:03;12.93;;;7.73;;
47529;SDS011;33272;51.922;7.730;2022-07-23T05:42:32;8.37;;;6.97;;
47529;SDS011;33272;51.922;7.730;2022-07-23T05:44:59;10.93;;;7.87;;
47529;SDS011;33272;51.922;7.730;2022-07-23T05:47:26;8.37;;;7.03;;
47529;SDS011;33272;51.922;7.730;2022-07-23T05:49:54;8.67;;;7.13;;
47529;SDS011;33272;51.922;7.730;2022-07-23T05:52:21;8.77;;;6.97;;
47529;SDS011;33272;51.922;7.730;2022-07-23T05:54:48;7.23;;;6.53;;
47529;SDS011;33272;51.922;7.730;2022-07-23T05:57:16;8.93;;;6.47;;
47529;SDS011;33272;51.922;7.730;2022-07-23T05:59:43;8.53;;;6.43;;
47529;SDS011;33272;51.922;7.730;2022-07-23T06:02:10;6.33;;;5.73;;
47529;SDS011;33272;51.922;7.730;2022-07-23T06:04:37;7.20;;;6.17;;
47529;SDS011;33272;51.922;7.730;2022-07-23T06:07:04;8.27;;;6.17;;
47529;SDS011;33272;51.922;7.730;2022-07-23T06:09:31;6.07;;;5.47;;
47529;SDS011;33272;51.922;7.730;2022-07-23T06:11:58;7.40;;;5.67;;
47529;SDS011;33272;51.922;7.730;2022-07-23T06:14:27;6.87;;;5.67;;
47529;SDS011;33272;51.922;7.730;2022-07-23T06:16:54;9.43;;;6.20;;
47529;SDS011;33272;51.922;7.730;2022-07-23T06:19:21;7.30;;;5.53;;
47529;SDS011;33272;51.922;7.730;2022-07-23T06:21:48;7.97;;;6.37;;
47529;SDS011;33272;51.922;7.730;2022-07-23T06:24:15;6.53;;;5.93;;
47529;SDS011;33272;51.922;7.730;2022-07-23T06:26:42;7.53;;;6.03;;
47529;SDS011;33272;51.922;7.730;2022-07-23T06:29:09;7.83;;;6.33;;
47529;SDS011;33272;51.922;7.730;2022-07-23T06:31:38;6.27;;;5.00;;
47529;SDS011;33272;51.922;7.730;2022-07-23T06:34:05;8.67;;;5.73;;
47529;SDS011;33272;51.922;7.730;2022-07-23T06:36:32;8.40;;;5.93;;
47529;SDS011;33272;51.922;7.730;2022-07-23T06:38:59;7.60;;;6.23;;
47529;SDS011;33272;51.922;7.730;2022-07-23T06:41:26;8.13;;;5.50;;
47529;SDS011;33272;51.922;7.730;2022-07-23T06:43:53;8.70;;;6.10;;
47529;SDS011;33272;51.922;7.730;2022-07-23T06:46:20;8.00;;;5.47;;
47529;SDS011;33272;51.922;7.730;2022-07-23T06:48:49;8.50;;;5.50;;
47529;SDS011;33272;51.922;7.730;2022-07-23T06:51:16;7.67;;;5.20;;
47529;SDS011;33272;51.922;7.730;2022-07-23T06:53:43;6.23;;;5.63;;
47529;SDS011;33272;51.922;7.730;2022-07-23T06:56:10;6.40;;;5.33;;
47529;SDS011;33272;51.922;7.730;2022-07-23T06:58:37;7.23;;;4.93;;
47529;SDS011;33272;51.922;7.730;2022-07-23T07:01:04;6.93;;;5.70;;
47529;SDS011;33272;51.922;7.730;2022-07-23T07:03:31;6.63;;;5.23;;
47529;SDS011;33272;51.922;7.730;2022-07-23T07:05:59;6.43;;;5.37;;
47529;SDS011;33272;51.922;7.730;2022-07-23T07:08:27;7.57;;;5.40;;
47529;SDS011;33272;51.922;7.730;2022-07-23T07:10:54;8.00;;;5.70;;
47529;SDS011;33272;51.922;7.730;2022-07-23T07:13:21;6.10;;;5.50;;
47529;SDS011;33272;51.922;7.730;2022-07-23T07:15:48;6.43;;;5.83;;
47529;SDS011;33272;51.922;7.730;2022-07-23T07:18:16;6.67;;;4.27;;
47529;SDS011;33272;51.922;7.730;2022-07-23T07:20:43;5.33;;;4.70;;
47529;SDS011;33272;51.922;7.730;2022-07-23T07:23:11;5.80;;;4.63;;
47529;SDS011;33272;51.922;7.730;2022-07-23T07:25:39;5.87;;;4.53;;
47529;SDS011;33272;51.922;7.730;2022-07-23T07:28:06;8.87;;;4.40;;
47529;SDS011;33272;51.922;7.730;2022-07-23T07:30:33;6.87;;;4.80;;
47529;SDS011;33272;51.922;7.730;2022-07-23T07:33:00;5.10;;;4.57;;
47529;SDS011;33272;51.922;7.730;2022-07-23T07:35:28;5.63;;;4.10;;
47529;SDS011;33272;51.922;7.730;2022-07-23T07:37:56;5.63;;;4.13;;
47529;SDS011;33272;51.922;7.730;2022-07-23T07:40:24;6.20;;;4.37;;
47529;SDS011;33272;51.922;7.730;2022-07-23T07:42:52;6.23;;;4.13;;
47529;SDS011;33272;51.922;7.730;2022-07-23T07:45:22;6.43;;;3.57;;
47529;SDS011;33272;51.922;7.730;2022-07-23T07:47:51;5.37;;;4.03;;
47529;SDS011;33272;51.922;7.730;2022-07-23T07:50:18;4.20;;;3.33;;
47529;SDS011;33272;51.922;7.730;2022-07-23T07:52:46;5.73;;;3.23;;
47529;SDS011;33272;51.922;7.730;2022-07-23T07:55:13;5.70;;;3.50;;
47529;SDS011;33272;51.922;7.730;2022-07-23T07:57:42;7.77;;;3.63;;
47529;SDS011;33272;51.922;7.730;2022-07-23T08:00:09;5.17;;;3.93;;
47529;SDS011;33272;51.922;7.730;2022-07-23T08:02:43;6.40;;;3.80;;
47529;SDS011;33272;51.922;7.730;2022-07-23T08:05:13;4.67;;;3.27;;
47529;SDS011;33272;51.922;7.730;2022-07-23T08:07:44;5.53;;;3.63;;
47529;SDS011;33272;51.922;7.730;2022-07-23T08:10:11;7.40;;;4.20;;
47529;SDS011;33272;51.922;7.730;2022-07-23T08:12:39;5.10;;;3.50;;
47529;SDS011;33272;51.922;7.730;2022-07-23T08:15:10;4.63;;;3.53;;
47529;SDS011;33272;51.922;7.730;2022-07-23T08:17:38;6.60;;;4.80;;
47529;SDS011;33272;51.922;7.730;2022-07-23T08:20:06;5.73;;;3.97;;
47529;SDS011;33272;51.922;7.730;2022-07-23T08:22:41;4.47;;;4.03;;
47529;SDS011;33272;51.922;7.730;2022-07-23T08:25:10;4.47;;;3.70;;
47529;SDS011;33272;51.922;7.730;2022-07-23T08:27:37;7.77;;;4.50;;
47529;SDS011;33272;51.922;7.730;2022-07-23T08:30:06;6.23;;;3.20;;
47529;SDS011;33272;51.922;7.730;2022-07-23T08:32:47;4.60;;;3.60;;
47529;SDS011;33272;51.922;7.730;2022-07-23T08:35:21;4.53;;;3.40;;
47529;SDS011;33272;51.922;7.730;2022-07-23T08:37:50;4.77;;;3.63;;
47529;SDS011;33272;51.922;7.730;2022-07-23T08:40:18;8.23;;;4.53;;
47529;SDS011;33272;51.922;7.730;2022-07-23T08:42:47;4.63;;;4.00;;
47529;SDS011;33272;51.922;7.730;2022-07-23T08:45:18;4.57;;;4.00;;
47529;SDS011;33272;51.922;7.730;2022-07-23T08:47:48;6.97;;;4.00;;
47529;SDS011;33272;51.922;7.730;2022-07-23T08:50:16;5.20;;;3.87;;
47529;SDS011;33272;51.922;7.730;2022-07-23T08:52:43;8.90;;;3.93;;
47529;SDS011;33272;51.922;7.730;2022-07-23T08:55:10;4.63;;;4.23;;
47529;SDS011;33272;51.922;7.730;2022-07-23T08:57:38;4.80;;;4.30;;
47529;SDS011;33272;51.922;7.730;2022-07-23T09:00:05;5.40;;;3.90;;
47529;SDS011;33272;51.922;7.730;2022-07-23T09:02:39;3.97;;;3.60;;
47529;SDS011;33272;51.922;7.730;2022-07-23T09:05:09;4.60;;;3.60;;
47529;SDS011;33272;51.922;7.730;2022-07-23T09:07:38;5.20;;;3.97;;
47529;SDS011;33272;51.922;7.730;2022-07-23T09:10:45;4.30;;;3.40;;
47529;SDS011;33272;51.922;7.730;2022-07-23T09:13:34;4.33;;;3.33;;
47529;SDS011;33272;51.922;7.730;2022-07-23T09:16:05;4.73;;;3.50;;
47529;SDS011;33272;51.922;7.730;2022-07-23T09:18:38;4.03;;;3.63;;
47529;SDS011;33272;51.922;7.730;2022-07-23T09:21:10;4.20;;;3.40;;
47529;SDS011;33272;51.922;7.730;2022-07-23T09:23:41;3.30;;;2.70;;
47529;SDS011;33272;51.922;7.730;2022-07-23T09:26:17;2.83;;;2.53;;
47529;SDS011;33272;51.922;7.730;2022-07-23T09:28:51;3.47;;;2.50;;
47529;SDS011;33272;51.922;7.730;2022-07-23T09:31:23;2.93;;;2.70;;
47529;SDS011;33272;51.922;7.730;2022-07-23T09:34:07;4.00;;;2.37;;
47529;SDS011;33272;51.922;7.730;2022-07-23T09:36:40;3.40;;;3.10;;
47529;SDS011;33272;51.922;7.730;2022-07-23T09:39:08;3.80;;;3.07;;
47529;SDS011;33272;51.922;7.730;2022-07-23T09:41:37;3.50;;;2.70;;
47529;SDS011;33272;51.922;7.730;2022-07-23T09:44:07;4.33;;;2.40;;
47529;SDS011;33272;51.922;7.730;2022-07-23T09:46:41;3.53;;;3.13;;
47529;SDS011;33272;51.922;7.730;2022-07-23T09:49:11;5.80;;;2.97;;
47529;SDS011;33272;51.922;7.730;2022-07-23T09:51:45;3.53;;;3.10;;
47529;SDS011;33272;51.922;7.730;2022-07-23T09:54:27;6.53;;;2.80;;
47529;SDS011;33272;51.922;7.730;2022-07-23T09:56:59;3.53;;;2.30;;
47529;SDS011;33272;51.922;7.730;2022-07-23T09:59:31;4.30;;;1.93;;
47529;SDS011;33272;51.922;7.730;2022-07-23T10:02:00;2.80;;;2.20;;
47529;SDS011;33272;51.922;7.730;2022-07-23T10:04:30;3.47;;;2.13;;
47529;SDS011;33272;51.922;7.730;2022-07-23T10:06:59;4.33;;;2.20;;
47529;SDS011;33272;51.922;7.730;2022-07-23T10:09:30;3.30;;;1.80;;
47529;SDS011;33272;51.922;7.730;2022-07-23T10:12:00;3.77;;;2.10;;
47529;SDS011;33272;51.922;7.730;2022-07-23T10:14:43;5.30;;;2.53;;
47529;SDS011;33272;51.922;7.730;2022-07-23T10:17:10;4.57;;;1.83;;
47529;SDS011;33272;51.922;7.730;2022-07-23T10:19:41;2.77;;;2.10;;
47529;SDS011;33272;51.922;7.730;2022-07-23T10:22:11;3.87;;;2.30;;
47529;SDS011;33272;51.922;7.730;2022-07-23T10:24:47;2.93;;;1.87;;
47529;SDS011;33272;51.922;7.730;2022-07-23T10:27:34;3.37;;;2.13;;
47529;SDS011;33272;51.922;7.730;2022-07-23T10:30:15;3.07;;;2.00;;
47529;SDS011;33272;51.922;7.730;2022-07-23T10:32:53;2.53;;;2.00;;
47529;SDS011;33272;51.922;7.730;2022-07-23T10:35:38;1.93;;;1.83;;
47529;SDS011;33272;51.922;7.730;2022-07-23T10:38:15;2.17;;;1.60;;
47529;SDS011;33272;51.922;7.730;2022-07-23T10:40:53;3.83;;;2.00;;
47529;SDS011;33272;51.922;7.730;2022-07-23T10:43:23;2.90;;;1.70;;
47529;SDS011;33272;51.922;7.730;2022-07-23T10:45:50;2.50;;;1.80;;
47529;SDS011;33272;51.922;7.730;2022-07-23T10:48:18;4.33;;;1.80;;
47529;SDS011;33272;51.922;7.730;2022-07-23T10:51:08;2.10;;;1.60;;
47529;SDS011;33272;51.922;7.730;2022-07-23T10:53:53;4.47;;;2.07;;
47529;SDS011;33272;51.922;7.730;2022-07-23T11:02:48;1.67;;;1.53;;
47529;SDS011;33272;51.922;7.730;2022-07-23T11:05:18;2.83;;;1.83;;
47529;SDS011;33272;51.922;7.730;2022-07-23T11:10:43;2.30;;;1.47;;
47529;SDS011;33272;51.922;7.730;2022-07-23T11:13:26;2.53;;;1.50;;
47529;SDS011;33272;51.922;7.730;2022-07-23T11:16:14;1.90;;;1.70;;
47529;SDS011;33272;51.922;7.730;2022-07-23T11:19:03;3.87;;;2.00;;
47529;SDS011;33272;51.922;7.730;2022-07-23T11:21:44;2.90;;;1.80;;
47529;SDS011;33272;51.922;7.730;2022-07-23T11:24:15;4.10;;;1.40;;
47529;SDS011;33272;51.922;7.730;2022-07-23T11:26:58;1.53;;;1.30;;
47529;SDS011;33272;51.922;7.730;2022-07-23T11:29:37;1.93;;;1.60;;
47529;SDS011;33272;51.922;7.730;2022-07-23T11:35:23;3.17;;;1.63;;
47529;SDS011;33272;51.922;7.730;2022-07-23T11:37:54;2.07;;;1.63;;
47529;SDS011;33272;51.922;7.730;2022-07-23T11:40:30;3.00;;;1.70;;
47529;SDS011;33272;51.922;7.730;2022-07-23T11:42:59;2.33;;;1.53;;
47529;SDS011;33272;51.922;7.730;2022-07-23T11:45:30;4.10;;;1.33;;
47529;SDS011;33272;51.922;7.730;2022-07-23T11:47:59;2.07;;;1.50;;
47529;SDS011;33272;51.922;7.730;2022-07-23T11:50:26;2.17;;;1.23;;
47529;SDS011;33272;51.922;7.730;2022-07-23T11:52:54;3.13;;;1.57;;
47529;SDS011;33272;51.922;7.730;2022-07-23T11:55:22;1.60;;;1.50;;
47529;SDS011;33272;51.922;7.730;2022-07-23T11:57:51;2.73;;;1.60;;
47529;SDS011;33272;51.922;7.730;2022-07-23T12:00:19;1.70;;;1.17;;
47529;SDS011;33272;51.922;7.730;2022-07-23T12:02:48;3.07;;;1.30;;
47529;SDS011;33272;51.922;7.730;2022-07-23T12:05:18;2.10;;;1.47;;
47529;SDS011;33272;51.922;7.730;2022-07-23T12:07:47;1.93;;;1.40;;
47529;SDS011;33272;51.922;7.730;2022-07-23T12:10:18;4.10;;;1.40;;
47529;SDS011;33272;51.922;7.730;2022-07-23T12:12:48;2.10;;;1.40;;
47529;SDS011;33272;51.922;7.730;2022-07-23T12:15:19;1.73;;;1.50;;
47529;SDS011;33272;51.922;7.730;2022-07-23T12:17:49;2.97;;;1.67;;
47529;SDS011;33272;51.922;7.730;2022-07-23T12:20:18;2.67;;;1.70;;
47529;SDS011;33272;51.922;7.730;2022-07-23T12:22:51;2.80;;;1.50;;
47529;SDS011;33272;51.922;7.730;2022-07-23T12:25:22;2.13;;;1.33;;
47529;SDS011;33272;51.922;7.730;2022-07-23T12:27:58;1.87;;;1.53;;
47529;SDS011;33272;51.922;7.730;2022-07-23T12:30:31;2.93;;;1.67;;
47529;SDS011;33272;51.922;7.730;2022-07-23T12:33:00;1.63;;;1.37;;
47529;SDS011;33272;51.922;7.730;2022-07-23T12:35:30;1.83;;;1.50;;
47529;SDS011;33272;51.922;7.730;2022-07-23T12:38:02;1.60;;;1.40;;
47529;SDS011;33272;51.922;7.730;2022-07-23T12:40:31;2.40;;;1.27;;
47529;SDS011;33272;51.922;7.730;2022-07-23T12:43:03;2.90;;;1.40;;
47529;SDS011;33272;51.922;7.730;2022-07-23T12:45:44;1.50;;;1.30;;
47529;SDS011;33272;51.922;7.730;2022-07-23T12:48:20;2.70;;;1.37;;
47529;SDS011;33272;51.922;7.730;2022-07-23T12:50:54;1.67;;;1.37;;
47529;SDS011;33272;51.922;7.730;2022-07-23T12:53:25;2.10;;;1.30;;
47529;SDS011;33272;51.922;7.730;2022-07-23T12:56:03;3.10;;;1.80;;
47529;SDS011;33272;51.922;7.730;2022-07-23T12:58:40;2.10;;;1.63;;
47529;SDS011;33272;51.922;7.730;2022-07-23T13:01:22;1.47;;;1.37;;
47529;SDS011;33272;51.922;7.730;2022-07-23T13:03:59;2.77;;;1.40;;
47529;SDS011;33272;51.922;7.730;2022-07-23T13:06:30;2.17;;;1.50;;
47529;SDS011;33272;51.922;7.730;2022-07-23T13:08:59;1.40;;;1.30;;
47529;SDS011;33272;51.922;7.730;2022-07-23T13:11:26;1.90;;;1.43;;
47529;SDS011;33272;51.922;7.730;2022-07-23T13:13:53;1.50;;;1.40;;
47529;SDS011;33272;51.922;7.730;2022-07-23T13:16:20;2.73;;;1.33;;
47529;SDS011;33272;51.922;7.730;2022-07-23T13:18:49;1.40;;;1.30;;
47529;SDS011;33272;51.922;7.730;2022-07-23T13:21:16;2.67;;;1.50;;
47529;SDS011;33272;51.922;7.730;2022-07-23T13:23:43;1.97;;;1.73;;
47529;SDS011;33272;51.922;7.730;2022-07-23T13:26:10;1.63;;;1.37;;
47529;SDS011;33272;51.922;7.730;2022-07-23T13:28:37;1.70;;;1.40;;
47529;SDS011;33272;51.922;7.730;2022-07-23T13:31:04;2.13;;;1.40;;
47529;SDS011;33272;51.922;7.730;2022-07-23T13:33:34;2.47;;;1.47;;
47529;SDS011;33272;51.922;7.730;2022-07-23T13:36:01;2.23;;;1.70;;
47529;SDS011;33272;51.922;7.730;2022-07-23T13:38:29;3.13;;;1.53;;
47529;SDS011;33272;51.922;7.730;2022-07-23T13:40:56;2.63;;;1.67;;
47529;SDS011;33272;51.922;7.730;2022-07-23T13:43:24;2.53;;;1.20;;
47529;SDS011;33272;51.922;7.730;2022-07-23T13:45:52;3.30;;;1.70;;
47529;SDS011;33272;51.922;7.730;2022-07-23T13:48:19;2.03;;;1.50;;
47529;SDS011;33272;51.922;7.730;2022-07-23T13:50:48;3.80;;;1.93;;
47529;SDS011;33272;51.922;7.730;2022-07-23T13:53:17;2.57;;;1.50;;
47529;SDS011;33272;51.922;7.730;2022-07-23T13:55:47;1.60;;;1.50;;
47529;SDS011;33272;51.922;7.730;2022-07-23T13:58:16;1.93;;;1.37;;
47529;SDS011;33272;51.922;7.730;2022-07-23T14:00:46;1.67;;;1.57;;
47529;SDS011;33272;51.922;7.730;2022-07-23T14:03:15;1.63;;;1.53;;
47529;SDS011;33272;51.922;7.730;2022-07-23T14:05:44;2.33;;;1.97;;
47529;SDS011;33272;51.922;7.730;2022-07-23T14:08:12;3.00;;;1.80;;
47529;SDS011;33272;51.922;7.730;2022-07-23T14:10:39;2.97;;;1.83;;
47529;SDS011;33272;51.922;7.730;2022-07-23T14:13:06;3.13;;;1.63;;
47529;SDS011;33272;51.922;7.730;2022-07-23T14:15:33;2.93;;;1.87;;
47529;SDS011;33272;51.922;7.730;2022-07-23T14:18:02;1.80;;;1.70;;
47529;SDS011;33272;51.922;7.730;2022-07-23T14:20:29;4.63;;;1.60;;
47529;SDS011;33272;51.922;7.730;2022-07-23T14:22:56;3.13;;;1.90;;
47529;SDS011;33272;51.922;7.730;2022-07-23T14:25:27;3.50;;;1.63;;
47529;SDS011;33272;51.922;7.730;2022-07-23T14:27:54;3.03;;;1.80;;
47529;SDS011;33272;51.922;7.730;2022-07-23T14:30:21;2.27;;;1.67;;
47529;SDS011;33272;51.922;7.730;2022-07-23T14:32:49;3.37;;;1.83;;
47529;SDS011;33272;51.922;7.730;2022-07-23T14:35:16;3.17;;;1.87;;
47529;SDS011;33272;51.922;7.730;2022-07-23T14:37:44;2.97;;;1.73;;
47529;SDS011;33272;51.922;7.730;2022-07-23T14:40:11;3.03;;;1.70;;
47529;SDS011;33272;51.922;7.730;2022-07-23T14:42:39;2.93;;;1.77;;
47529;SDS011;33272;51.922;7.730;2022-07-23T14:45:06;2.37;;;1.70;;
47529;SDS011;33272;51.922;7.730;2022-07-23T14:47:34;2.07;;;1.70;;
47529;SDS011;33272;51.922;7.730;2022-07-23T14:50:01;3.40;;;2.00;;
47529;SDS011;33272;51.922;7.730;2022-07-23T14:52:28;3.07;;;1.73;;
47529;SDS011;33272;51.922;7.730;2022-07-23T14:54:55;2.00;;;1.67;;
47529;SDS011;33272;51.922;7.730;2022-07-23T14:57:22;2.10;;;1.90;;
47529;SDS011;33272;51.922;7.730;2022-07-23T14:59:51;3.30;;;2.00;;
47529;SDS011;33272;51.922;7.730;2022-07-23T15:02:18;2.63;;;1.67;;
47529;SDS011;33272;51.922;7.730;2022-07-23T15:04:45;1.97;;;1.70;;
47529;SDS011;33272;51.922;7.730;2022-07-23T15:07:12;1.90;;;1.57;;
47529;SDS011;33272;51.922;7.730;2022-07-23T15:09:39;1.73;;;1.63;;